Tram, Kentucky
Current Conditions -  °F | °C
As of 12:55 AM on Monday 20 Oct 2014 (Local Time) from KPBX Reporting Station
Clear Clear  
Wind Chill: 41°   Ceiling: Unl
Heat Index: 44°   Visibility: 10mi
Dew Point: 40°   Wind: 5mph
Humidity: 89%   Direction: 160°SSE
Pressure: 30.08"   Gusts: NA
Location:  37.57°N, 82.65°W
Report Text: KPBX 200455Z AUTO 16004KT 10SM CLR 06/05 A3008 RMK AO2 T00640047 401290062
Loading
Personal Weather Stations






























Interactive Weather Map
Tropical Storm Tracking
New forecast layout! Learn more

10-Day Weather Forecast

Advertisements
Track Severe Weather on mobile